createdAt,value
2019-04-07T00:00:09.032Z,19.73
2019-04-07T00:02:37.518Z,20.03
2019-04-07T00:05:13.066Z,19.93
2019-04-07T00:07:39.065Z,19.20
2019-04-07T00:10:09.835Z,20.73
2019-04-07T00:12:38.383Z,18.80
2019-04-07T00:15:06.999Z,19.00
2019-04-07T00:17:36.150Z,20.70
2019-04-07T00:20:07.338Z,20.00
2019-04-07T00:22:35.814Z,20.50
2019-04-07T00:25:05.201Z,19.23
2019-04-07T00:27:33.731Z,18.33
2019-04-07T00:30:02.177Z,18.93
2019-04-07T00:32:30.677Z,19.07
2019-04-07T00:34:59.071Z,20.07
2019-04-07T00:37:27.549Z,19.10
2019-04-07T00:39:56.641Z,19.27
2019-04-07T00:42:25.126Z,20.40
2019-04-07T00:44:53.525Z,20.27
2019-04-07T00:47:21.941Z,19.67
2019-04-07T00:49:51.192Z,19.90
2019-04-07T00:52:21.499Z,20.20
2019-04-07T00:54:51.318Z,19.07
2019-04-07T00:57:20.828Z,19.47
2019-04-07T00:59:49.491Z,18.70
2019-04-07T01:02:18.469Z,19.90
2019-04-07T01:04:47.259Z,19.20
2019-04-07T01:07:15.726Z,21.47
2019-04-07T01:09:44.175Z,18.27
2019-04-07T01:12:12.827Z,18.63
2019-04-07T01:14:41.747Z,20.17
2019-04-07T01:17:10.197Z,19.77
2019-04-07T01:19:38.765Z,19.93
2019-04-07T01:22:07.167Z,19.10
2019-04-07T01:24:36.383Z,19.97
2019-04-07T01:27:05.091Z,19.43
2019-04-07T01:29:34.061Z,21.23
2019-04-07T01:32:02.674Z,20.97
2019-04-07T01:34:31.543Z,21.03
2019-04-07T01:37:00.067Z,19.63
2019-04-07T01:39:28.464Z,21.00
2019-04-07T01:41:58.501Z,20.33
2019-04-07T01:44:28.536Z,19.00
2019-04-07T01:47:16.778Z,18.83
2019-04-07T01:49:49.329Z,18.87
2019-04-07T01:52:19.614Z,22.07
2019-04-07T01:55:04.953Z,20.30
2019-04-07T01:57:51.871Z,20.20
2019-04-07T02:00:25.173Z,22.43
2019-04-07T02:03:02.194Z,22.57
2019-04-07T02:05:35.325Z,23.53
2019-04-07T02:08:28.116Z,24.13
2019-04-07T02:11:05.015Z,25.17
2019-04-07T02:13:47.215Z,26.03
2019-04-07T02:16:23.514Z,26.13
2019-04-07T02:18:54.231Z,25.87
2019-04-07T02:21:30.723Z,26.43
2019-04-07T02:24:09.378Z,27.00
2019-04-07T02:26:39.446Z,26.93
2019-04-07T02:29:18.098Z,24.90
2019-04-07T02:31:48.140Z,23.93
2019-04-07T02:34:30.004Z,25.80
2019-04-07T02:37:17.386Z,26.17
2019-04-07T02:39:53.224Z,23.80
2019-04-07T02:42:29.008Z,23.47
2019-04-07T02:45:11.071Z,23.60
2019-04-07T02:47:53.261Z,22.40
2019-04-07T02:50:26.634Z,23.50
2019-04-07T02:53:07.654Z,23.40
2019-04-07T02:55:40.822Z,22.30
2019-04-07T02:58:10.858Z,22.00
2019-04-07T03:00:50.650Z,22.10
2019-04-07T03:03:37.320Z,21.20
2019-04-07T03:06:26.200Z,19.23
2019-04-07T03:09:00.128Z,19.83
2019-04-07T03:11:39.285Z,20.20
2019-04-07T03:14:09.910Z,21.57
2019-04-07T03:16:40.598Z,21.33
2019-04-07T03:19:23.526Z,22.37
2019-04-07T03:22:02.902Z,22.67
2019-04-07T03:24:39.066Z,23.23
2019-04-07T03:27:10.037Z,22.13
2019-04-07T03:29:42.605Z,21.70
2019-04-07T03:32:18.866Z,23.37
2019-04-07T03:35:05.347Z,21.30
2019-04-07T03:37:51.511Z,21.17
2019-04-07T03:40:30.586Z,21.43
2019-04-07T03:43:01.486Z,19.70
2019-04-07T03:45:38.045Z,21.30
2019-04-07T03:48:21.166Z,23.87
2019-04-07T03:50:57.271Z,23.70
2019-04-07T03:53:45.716Z,22.73
2019-04-07T03:56:22.050Z,21.17
2019-04-07T03:59:00.863Z,21.97
2019-04-07T04:01:33.981Z,24.30
2019-04-07T04:04:24.312Z,23.47
2019-04-07T04:07:17.777Z,20.87
2019-04-07T04:09:42.811Z,21.17
2019-04-07T04:12:22.697Z,22.27
2019-04-07T04:15:00.215Z,23.90
2019-04-07T04:17:28.949Z,22.87
2019-04-07T04:19:57.499Z,22.90
2019-04-07T04:22:26.071Z,22.07
2019-04-07T04:24:55.461Z,20.40
2019-04-07T04:27:24.095Z,21.43
2019-04-07T04:29:53.456Z,23.10
2019-04-07T04:32:23.158Z,24.27
2019-04-07T04:34:51.577Z,23.53
2019-04-07T04:37:34.398Z,24.10
2019-04-07T04:39:50.971Z,24.13
2019-04-07T04:42:20.436Z,23.93
2019-04-07T04:44:49.129Z,22.53
2019-04-07T04:47:17.606Z,23.77
2019-04-07T04:49:46.045Z,22.93
2019-04-07T04:52:14.531Z,24.77
2019-04-07T04:54:42.914Z,24.87
2019-04-07T04:57:11.335Z,24.50
2019-04-07T04:59:40.265Z,23.10
2019-04-07T05:02:09.044Z,24.67
2019-04-07T05:04:37.559Z,23.80
2019-04-07T05:07:05.970Z,23.50
2019-04-07T05:09:45.572Z,23.77
2019-04-07T05:12:05.827Z,22.67
2019-04-07T05:14:34.559Z,24.03
2019-04-07T05:17:02.954Z,21.93
2019-04-07T05:19:31.361Z,24.27
2019-04-07T05:21:59.878Z,23.47
2019-04-07T05:24:28.449Z,24.60
2019-04-07T05:26:57.324Z,22.93
2019-04-07T05:29:25.866Z,22.50
2019-04-07T05:31:54.410Z,22.13
2019-04-07T05:34:23.075Z,21.93
2019-04-07T05:36:52.223Z,21.17
2019-04-07T05:39:20.767Z,21.47
2019-04-07T05:41:49.238Z,21.33
2019-04-07T05:44:17.866Z,21.17
2019-04-07T05:46:49.400Z,20.63
2019-04-07T05:49:17.703Z,21.13
2019-04-07T05:51:47.124Z,19.50
2019-04-07T05:54:18.072Z,21.63
2019-04-07T05:56:45.960Z,20.47
2019-04-07T05:59:14.723Z,21.00
2019-04-07T06:01:44.546Z,19.63
2019-04-07T06:04:16.869Z,20.93
2019-04-07T06:06:43.171Z,18.53
2019-04-07T06:09:11.577Z,19.60
2019-04-07T06:11:40.142Z,21.20
2019-04-07T06:14:08.559Z,20.47
2019-04-07T06:16:37.710Z,18.67
2019-04-07T06:19:08.067Z,19.60
2019-04-07T06:21:36.636Z,19.30
2019-04-07T06:24:05.205Z,19.10
2019-04-07T06:26:34.170Z,17.77
2019-04-07T06:29:02.706Z,18.60
2019-04-07T06:31:32.189Z,19.27
2019-04-07T06:34:01.290Z,18.87
2019-04-07T06:36:29.712Z,19.33
2019-04-07T06:38:58.205Z,18.30
2019-04-07T06:41:29.487Z,17.20
2019-04-07T06:44:08.961Z,18.83
2019-04-07T06:46:28.934Z,19.40
2019-04-07T06:49:02.703Z,19.73
2019-04-07T06:51:35.830Z,19.00
2019-04-07T06:54:23.197Z,19.43
2019-04-07T06:57:05.259Z,19.17
2019-04-07T06:59:33.987Z,19.17
2019-04-07T07:02:20.824Z,19.03
2019-04-07T07:04:53.968Z,19.57
2019-04-07T07:07:41.411Z,20.43
2019-04-07T07:10:30.147Z,20.10
2019-04-07T07:13:15.591Z,20.87
2019-04-07T07:15:45.123Z,21.00
2019-04-07T07:18:15.509Z,21.33
2019-04-07T07:20:46.166Z,23.07
2019-04-07T07:23:16.954Z,23.90
2019-04-07T07:25:45.503Z,24.37
2019-04-07T07:28:14.391Z,22.90
2019-04-07T07:30:42.821Z,23.53
2019-04-07T07:33:11.266Z,21.93
2019-04-07T07:35:39.836Z,24.00
2019-04-07T07:38:09.212Z,24.40
2019-04-07T07:40:38.523Z,25.13
2019-04-07T07:43:06.992Z,23.77
2019-04-07T07:45:36.197Z,23.53
2019-04-07T07:48:05.362Z,24.83
2019-04-07T07:50:36.782Z,25.33
2019-04-07T07:53:04.674Z,23.80
2019-04-07T07:55:36.501Z,24.53
2019-04-07T07:58:04.063Z,24.50
2019-04-07T08:00:37.160Z,24.73
2019-04-07T08:03:02.643Z,23.37
2019-04-07T08:05:33.336Z,23.07
2019-04-07T08:10:50.735Z,23.67
2019-04-07T08:13:20.076Z,23.40
2019-04-07T08:15:49.334Z,22.70
2019-04-07T08:18:19.833Z,21.73
2019-04-07T08:20:48.986Z,24.23
2019-04-07T08:23:17.519Z,22.43
2019-04-07T08:25:46.102Z,23.27
2019-04-07T08:28:14.729Z,21.33
2019-04-07T08:30:46.629Z,20.33
2019-04-07T08:33:13.595Z,21.07
2019-04-07T08:35:42.645Z,20.20
2019-04-07T08:38:12.147Z,20.57
2019-04-07T08:40:40.817Z,22.40
2019-04-07T08:43:09.218Z,20.07
2019-04-07T08:45:38.144Z,20.53
2019-04-07T08:48:07.322Z,20.40
2019-04-07T08:50:36.330Z,18.60
2019-04-07T08:53:04.786Z,19.83
2019-04-07T08:55:33.566Z,19.50
2019-04-07T08:58:04.296Z,15.97
2019-04-07T09:00:34.091Z,16.57
2019-04-07T09:03:07.814Z,16.73
2019-04-07T09:05:33.429Z,16.20
2019-04-07T09:08:05.534Z,18.23
2019-04-07T09:10:37.214Z,17.93
2019-04-07T09:13:08.347Z,18.53
2019-04-07T09:15:43.606Z,19.53
2019-04-07T09:18:21.224Z,18.47
2019-04-07T09:21:07.835Z,18.33
2019-04-07T09:23:40.508Z,17.93
2019-04-07T09:26:21.140Z,18.17
2019-04-07T09:28:55.805Z,17.27
2019-04-07T09:31:26.034Z,15.67
2019-04-07T09:33:59.851Z,16.47
2019-04-07T09:36:32.322Z,17.10
2019-04-07T09:39:03.837Z,17.43
2019-04-07T09:41:33.879Z,16.57
2019-04-07T09:44:20.923Z,17.17
2019-04-07T09:46:57.481Z,14.80
2019-04-07T09:49:48.136Z,14.03
2019-04-07T09:52:22.114Z,14.63
2019-04-07T09:54:58.628Z,16.07
2019-04-07T09:57:41.189Z,15.37
2019-04-07T10:00:16.015Z,13.30
2019-04-07T10:02:55.012Z,14.77
2019-04-07T10:05:41.382Z,14.97
2019-04-07T10:08:31.578Z,13.57
2019-04-07T10:11:17.772Z,14.47
2019-04-07T10:14:01.189Z,13.37
2019-04-07T10:16:49.528Z,13.47
2019-04-07T10:19:28.359Z,12.97
2019-04-07T10:22:04.240Z,13.40
2019-04-07T10:24:34.630Z,13.60
2019-04-07T10:27:21.367Z,14.10
2019-04-07T10:29:52.459Z,11.83
2019-04-07T10:32:35.122Z,12.30
2019-04-07T10:35:08.344Z,11.33
2019-04-07T10:37:50.230Z,12.33
2019-04-07T10:40:34.683Z,12.77
2019-04-07T10:43:07.524Z,12.10
2019-04-07T10:45:38.279Z,13.20
2019-04-07T10:48:25.807Z,10.63
2019-04-07T10:50:59.119Z,11.67
2019-04-07T10:53:45.834Z,16.23
2019-04-07T10:56:18.766Z,14.77
2019-04-07T10:59:01.847Z,14.53
2019-04-07T11:01:37.918Z,11.50
2019-04-07T11:04:25.569Z,12.77
2019-04-07T11:07:01.961Z,13.33
2019-04-07T11:09:35.415Z,13.63
2019-04-07T11:12:15.452Z,13.17
2019-04-07T11:14:45.661Z,13.10
2019-04-07T11:17:25.390Z,13.63
2019-04-07T11:19:55.523Z,11.07
2019-04-07T11:22:41.928Z,11.17
2019-04-07T11:25:12.973Z,12.03
2019-04-07T11:27:46.787Z,12.13
2019-04-07T11:30:18.064Z,12.67
2019-04-07T11:32:57.593Z,11.93
2019-04-07T11:35:29.869Z,11.77
2019-04-07T11:38:02.706Z,11.17
2019-04-07T11:40:50.146Z,11.87
2019-04-07T11:43:32.973Z,12.23
2019-04-07T11:46:03.481Z,11.97
2019-04-07T11:48:50.416Z,12.17
2019-04-07T11:51:32.571Z,12.67
2019-04-07T11:54:20.718Z,11.67
2019-04-07T11:57:05.542Z,10.90
2019-04-07T11:59:41.467Z,12.13
2019-04-07T12:02:12.548Z,11.43
2019-04-07T12:04:45.711Z,11.93
2019-04-07T12:07:25.144Z,10.63
2019-04-07T12:10:01.353Z,11.00
2019-04-07T12:12:43.823Z,10.93
2019-04-07T12:15:26.943Z,10.83
2019-04-07T12:18:18.531Z,8.53
2019-04-07T12:20:46.177Z,8.03
2019-04-07T12:23:21.784Z,8.60
2019-04-07T12:25:57.651Z,9.80
2019-04-07T12:28:37.569Z,11.67
2019-04-07T12:31:08.538Z,11.20
2019-04-07T12:33:47.426Z,10.33
2019-04-07T12:36:31.800Z,11.60
2019-04-07T12:39:20.202Z,10.77
2019-04-07T12:41:59.463Z,10.90
2019-04-07T12:44:30.042Z,11.10
2019-04-07T12:47:17.082Z,10.47
2019-04-07T12:49:50.156Z,8.30
2019-04-07T12:52:36.664Z,7.57
2019-04-07T12:55:15.381Z,9.27
2019-04-07T12:57:48.582Z,8.57
2019-04-07T13:00:52.298Z,9.07
2019-04-07T13:03:23.012Z,8.77
2019-04-07T13:05:53.066Z,11.37
2019-04-07T13:08:32.300Z,10.23
2019-04-07T13:11:25.428Z,9.20
2019-04-07T13:14:05.285Z,9.40
2019-04-07T13:16:42.741Z,9.10
2019-04-07T13:19:15.648Z,8.80
2019-04-07T13:21:46.848Z,7.50
2019-04-07T13:24:34.102Z,5.97
2019-04-07T13:27:14.152Z,6.47
2019-04-07T13:29:49.971Z,5.37
2019-04-07T13:32:20.693Z,6.10
2019-04-07T13:35:06.070Z,5.83
2019-04-07T13:37:41.276Z,5.50
2019-04-07T13:40:13.096Z,6.07
2019-04-07T13:42:43.034Z,5.50
2019-04-07T13:45:30.150Z,5.50
2019-04-07T13:48:00.351Z,5.23
2019-04-07T13:50:33.287Z,6.20
2019-04-07T13:53:20.702Z,6.13
2019-04-07T13:56:25.482Z,5.90
2019-04-07T13:59:04.006Z,5.43
2019-04-07T14:01:35.782Z,6.00
2019-04-07T14:04:05.795Z,5.17
2019-04-07T14:06:36.221Z,6.30
2019-04-07T14:09:09.317Z,5.50
2019-04-07T14:11:52.511Z,5.50
2019-04-07T14:14:12.317Z,5.70
2019-04-07T14:16:42.355Z,5.77
2019-04-07T14:19:18.868Z,5.67
2019-04-07T14:22:00.981Z,5.40
2019-04-07T14:24:37.212Z,5.17
2019-04-07T14:27:10.019Z,5.13
2019-04-07T14:29:40.578Z,5.20
2019-04-07T14:32:27.399Z,5.50
2019-04-07T14:34:57.690Z,5.20
2019-04-07T14:37:30.765Z,5.80
2019-04-07T14:40:17.141Z,6.03
2019-04-07T14:42:53.359Z,6.10
2019-04-07T14:45:32.701Z,5.10
2019-04-07T14:48:08.732Z,5.07
2019-04-07T14:50:55.967Z,5.40
2019-04-07T14:53:30.265Z,5.20
2019-04-07T14:56:16.496Z,5.70
2019-04-07T14:58:53.859Z,4.20
2019-04-07T15:01:26.531Z,4.57
2019-04-07T15:03:55.686Z,6.00
2019-04-07T15:06:29.212Z,5.73
2019-04-07T15:08:56.431Z,6.83
2019-04-07T15:11:26.987Z,5.77
2019-04-07T15:13:57.810Z,6.27
2019-04-07T15:16:26.354Z,6.40
2019-04-07T15:18:55.114Z,6.90
2019-04-07T15:21:25.353Z,6.10
2019-04-07T15:23:53.875Z,6.80
2019-04-07T15:26:22.285Z,7.27
2019-04-07T15:28:50.678Z,6.40
2019-04-07T15:31:20.477Z,6.43
2019-04-07T15:33:49.777Z,6.70
2019-04-07T15:36:19.573Z,7.03
2019-04-07T15:38:49.474Z,7.20
2019-04-07T15:41:19.520Z,6.50
2019-04-07T15:43:48.834Z,6.30
2019-04-07T15:46:19.178Z,6.80
2019-04-07T15:48:48.429Z,6.87
2019-04-07T15:51:17.546Z,7.30
2019-04-07T15:53:50.357Z,6.67
2019-04-07T15:56:18.352Z,7.13
2019-04-07T15:58:46.390Z,6.20
2019-04-07T16:01:15.025Z,6.30
2019-04-07T16:03:47.783Z,7.00
2019-04-07T16:06:16.166Z,6.53
2019-04-07T16:08:44.639Z,7.10
2019-04-07T16:11:13.131Z,6.53
2019-04-07T16:13:42.276Z,7.10
2019-04-07T16:16:11.328Z,7.57
2019-04-07T16:18:42.945Z,6.60
2019-04-07T16:21:10.987Z,7.40
2019-04-07T16:23:40.495Z,6.60
2019-04-07T16:26:10.704Z,7.87
2019-04-07T16:28:43.255Z,6.70
2019-04-07T16:31:10.119Z,7.03
2019-04-07T16:33:38.831Z,7.30
2019-04-07T16:36:08.625Z,6.30
2019-04-07T16:38:37.193Z,7.20
2019-04-07T16:41:06.467Z,7.63
2019-04-07T16:43:37.650Z,8.33
2019-04-07T16:46:05.601Z,7.60
2019-04-07T16:48:38.658Z,6.97
2019-04-07T16:51:04.318Z,7.90
2019-04-07T16:53:36.482Z,8.20
2019-04-07T16:56:02.844Z,8.07
2019-04-07T16:58:35.393Z,8.27
2019-04-07T17:01:01.405Z,8.07
2019-04-07T17:03:29.790Z,7.67
2019-04-07T17:06:00.227Z,7.67
2019-04-07T17:08:28.775Z,7.50
2019-04-07T17:10:59.446Z,8.03
2019-04-07T17:13:37.078Z,8.73
2019-04-07T17:15:59.292Z,9.57
2019-04-07T17:18:42.928Z,8.67
2019-04-07T17:21:15.655Z,9.97
2019-04-07T17:23:45.490Z,8.33
2019-04-07T17:26:14.635Z,10.13
2019-04-07T17:28:45.185Z,10.30
2019-04-07T17:31:14.182Z,13.27
2019-04-07T17:33:42.860Z,10.40
2019-04-07T17:36:16.219Z,10.50
2019-04-07T17:38:49.862Z,9.63
2019-04-07T17:41:18.557Z,9.00
2019-04-07T17:43:53.455Z,9.77
2019-04-07T17:46:26.212Z,10.67
2019-04-07T17:48:59.786Z,9.50
2019-04-07T17:51:37.911Z,9.43
2019-04-07T17:54:10.476Z,9.00
2019-04-07T17:56:41.654Z,8.80
2019-04-07T17:59:15.275Z,9.77
2019-04-07T18:01:56.765Z,8.93
2019-04-07T18:04:27.252Z,9.70
2019-04-07T18:07:02.086Z,9.57
2019-04-07T18:09:29.818Z,10.30
2019-04-07T18:12:16.239Z,10.73
2019-04-07T18:14:56.991Z,11.03
2019-04-07T18:17:26.383Z,11.83
2019-04-07T18:20:05.257Z,11.80
2019-04-07T18:22:51.673Z,12.00
2019-04-07T18:25:39.677Z,11.10
2019-04-07T18:28:26.204Z,11.60
2019-04-07T18:31:13.223Z,12.50
2019-04-07T18:33:55.691Z,12.33
2019-04-07T18:36:43.925Z,12.83
2019-04-07T18:39:17.373Z,11.70
2019-04-07T18:42:06.651Z,13.13
2019-04-07T18:44:51.036Z,12.33
2019-04-07T18:47:31.471Z,12.60
2019-04-07T18:50:17.082Z,13.23
2019-04-07T18:53:03.700Z,13.57
2019-04-07T18:55:52.524Z,15.40
2019-04-07T18:58:39.768Z,12.47
2019-04-07T19:01:25.423Z,12.37
2019-04-07T19:04:01.302Z,11.60
2019-04-07T19:06:36.500Z,11.50
2019-04-07T19:09:12.181Z,11.27
2019-04-07T19:12:05.834Z,11.37
2019-04-07T19:14:50.230Z,10.13
2019-04-07T19:17:27.124Z,10.53
2019-04-07T19:20:10.873Z,10.30
2019-04-07T19:22:41.043Z,9.77
2019-04-07T19:25:20.348Z,11.00
2019-04-07T19:28:09.318Z,10.17
2019-04-07T19:30:46.151Z,9.10
2019-04-07T19:33:30.651Z,10.93
2019-04-07T19:36:10.303Z,9.03
2019-04-07T19:38:54.328Z,9.57
2019-04-07T19:41:24.482Z,9.67
2019-04-07T19:47:03.070Z,9.20
2019-04-07T19:49:51.303Z,8.83
2019-04-07T19:52:21.625Z,9.97
2019-04-07T19:55:08.095Z,10.07
2019-04-07T19:57:53.269Z,10.23
2019-04-07T20:00:26.341Z,10.53
2019-04-07T20:02:58.269Z,9.70
2019-04-07T20:05:44.328Z,9.13
2019-04-07T20:08:19.077Z,8.50
2019-04-07T20:10:52.343Z,8.60
2019-04-07T20:13:40.909Z,9.20
2019-04-07T20:16:19.941Z,8.07
2019-04-07T20:18:50.024Z,8.20
2019-04-07T20:21:35.057Z,7.60
2019-04-07T20:24:13.186Z,8.77
2019-04-07T20:26:43.355Z,7.67
2019-04-07T20:29:19.473Z,8.10
2019-04-07T20:31:51.583Z,7.17
2019-04-07T20:34:25.233Z,7.40
2019-04-07T20:36:58.119Z,6.60
2019-04-07T20:39:31.933Z,6.53
2019-04-07T20:42:05.953Z,7.10
2019-04-07T20:44:38.750Z,7.03
2019-04-07T20:47:08.787Z,6.60
2019-04-07T20:49:42.472Z,6.50
2019-04-07T20:52:17.904Z,6.23
2019-04-07T20:55:07.126Z,6.50
2019-04-07T20:57:51.338Z,6.23
2019-04-07T21:00:22.950Z,6.40
2019-04-07T21:03:09.974Z,6.20
2019-04-07T21:05:27.060Z,5.30
2019-04-07T21:08:13.002Z,6.43
2019-04-07T21:10:52.263Z,5.87
2019-04-07T21:13:27.943Z,6.20
2019-04-07T21:16:10.232Z,5.60
2019-04-07T21:18:40.471Z,6.20
2019-04-07T21:21:20.086Z,6.00
2019-04-07T21:23:53.299Z,4.90
2019-04-07T21:26:27.510Z,5.70
2019-04-07T21:28:58.863Z,5.53
2019-04-07T21:31:29.034Z,5.13
2019-04-07T21:33:59.219Z,5.23
2019-04-07T21:36:30.052Z,5.67
2019-04-07T21:39:00.390Z,4.97
2019-04-07T21:41:43.887Z,4.83
2019-04-07T21:44:11.705Z,5.07
2019-04-07T21:46:58.020Z,5.03
2019-04-07T21:49:35.945Z,5.07
2019-04-07T21:52:06.495Z,4.53
2019-04-07T21:57:19.366Z,4.50
2019-04-07T22:02:57.088Z,4.23
2019-04-07T22:05:39.443Z,4.50
2019-04-07T22:08:17.439Z,4.00
2019-04-07T22:10:45.447Z,4.80
2019-04-07T22:13:14.192Z,4.07
2019-04-07T22:15:48.276Z,4.60
2019-04-07T22:18:13.139Z,4.57
2019-04-07T22:20:41.583Z,4.53
2019-04-07T22:23:10.152Z,4.23
2019-04-07T22:25:52.571Z,4.67
2019-04-07T22:28:21.164Z,4.63
2019-04-07T22:30:52.069Z,4.63
2019-04-07T22:33:25.167Z,4.37
2019-04-07T22:35:51.300Z,3.90
2019-04-07T22:38:23.104Z,4.30
2019-04-07T22:40:50.094Z,5.20
2019-04-07T22:43:18.948Z,6.23
2019-04-07T22:45:58.990Z,4.00
2019-04-07T22:48:22.810Z,4.67
2019-04-07T22:50:49.599Z,3.87
2019-04-07T22:53:24.150Z,4.07
2019-04-07T22:55:48.656Z,3.93
2019-04-07T22:58:18.126Z,3.53
2019-04-07T23:00:46.922Z,4.27
2019-04-07T23:03:15.601Z,4.13
2019-04-07T23:05:44.122Z,3.70
2019-04-07T23:08:12.578Z,3.50
2019-04-07T23:10:40.994Z,3.27
2019-04-07T23:13:09.396Z,4.40
2019-04-07T23:15:44.366Z,3.57
2019-04-07T23:18:07.995Z,3.77
2019-04-07T23:20:36.489Z,3.60
2019-04-07T23:23:05.670Z,3.97
2019-04-07T23:25:34.356Z,4.43
2019-04-07T23:28:02.851Z,3.83
2019-04-07T23:30:31.478Z,3.47
2019-04-07T23:33:00.041Z,3.40
2019-04-07T23:35:28.782Z,3.30
2019-04-07T23:37:57.489Z,4.27
2019-04-07T23:40:25.967Z,4.30
2019-04-07T23:42:55.116Z,6.37
2019-04-07T23:45:23.723Z,5.80
2019-04-07T23:47:52.552Z,6.50
2019-04-07T23:50:21.157Z,7.07
2019-04-07T23:52:49.793Z,6.13
2019-04-07T23:55:18.268Z,6.20
2019-04-07T23:57:46.670Z,6.27
